sensor_id;sensor_type;location;lat;lon;timestamp;pressure;altitude;pressure_sealevel;temperature;humidity
77431;BME280;66498;48.564;19.272;2023-06-14T00:02:11;97338.47;;;11.28;81.93
77431;BME280;66498;48.564;19.272;2023-06-14T00:04:52;97340.59;;;11.43;82.06
77431;BME280;66498;48.564;19.272;2023-06-14T00:07:34;97334.75;;;11.52;81.37
77431;BME280;66498;48.564;19.272;2023-06-14T00:10:25;97326.63;;;11.54;81.28
77431;BME280;66498;48.564;19.272;2023-06-14T00:13:20;97333.63;;;11.36;82.76
77431;BME280;66498;48.564;19.272;2023-06-14T00:15:49;97335.72;;;11.11;83.75
77431;BME280;66498;48.564;19.272;2023-06-14T00:18:21;97336.28;;;11.36;82.80
77431;BME280;66498;48.564;19.272;2023-06-14T00:20:50;97338.41;;;11.63;81.64
77431;BME280;66498;48.564;19.272;2023-06-14T00:23:19;97339.81;;;11.42;82.66
77431;BME280;66498;48.564;19.272;2023-06-14T00:25:45;97340.28;;;11.39;82.62
77431;BME280;66498;48.564;19.272;2023-06-14T00:28:11;97342.44;;;11.30;82.88
77431;BME280;66498;48.564;19.272;2023-06-14T00:30:38;97346.25;;;11.87;80.02
77431;BME280;66498;48.564;19.272;2023-06-14T00:33:24;97343.25;;;11.83;80.17
77431;BME280;66498;48.564;19.272;2023-06-14T00:35:51;97335.44;;;11.59;81.82
77431;BME280;66498;48.564;19.272;2023-06-14T00:38:23;97338.59;;;11.61;81.88
77431;BME280;66498;48.564;19.272;2023-06-14T00:40:50;97340.03;;;11.52;81.61
77431;BME280;66498;48.564;19.272;2023-06-14T00:43:41;97341.66;;;11.42;82.19
77431;BME280;66498;48.564;19.272;2023-06-14T00:46:51;97336.25;;;11.48;80.94
77431;BME280;66498;48.564;19.272;2023-06-14T00:49:19;97331.59;;;10.80;83.97
77431;BME280;66498;48.564;19.272;2023-06-14T00:51:45;97341.75;;;10.76;83.89
77431;BME280;66498;48.564;19.272;2023-06-14T00:54:31;97334.41;;;10.43;85.33
77431;BME280;66498;48.564;19.272;2023-06-14T00:57:19;97332.38;;;10.57;84.52
77431;BME280;66498;48.564;19.272;2023-06-14T00:59:48;97338.34;;;10.87;83.88
77431;BME280;66498;48.564;19.272;2023-06-14T01:02:14;97335.50;;;11.01;83.27
77431;BME280;66498;48.564;19.272;2023-06-14T01:04:43;97339.22;;;10.70;84.60
77431;BME280;66498;48.564;19.272;2023-06-14T01:07:46;97338.53;;;10.62;85.15
77431;BME280;66498;48.564;19.272;2023-06-14T01:13:32;97329.91;;;10.74;84.89
77431;BME280;66498;48.564;19.272;2023-06-14T01:16:02;97318.59;;;11.08;83.59
77431;BME280;66498;48.564;19.272;2023-06-14T01:18:51;97322.34;;;11.12;82.38
77431;BME280;66498;48.564;19.272;2023-06-14T01:21:26;97317.34;;;11.11;83.25
77431;BME280;66498;48.564;19.272;2023-06-14T01:23:55;97320.88;;;11.05;84.08
77431;BME280;66498;48.564;19.272;2023-06-14T01:26:29;97321.22;;;10.97;84.55
77431;BME280;66498;48.564;19.272;2023-06-14T01:29:16;97324.03;;;10.48;85.32
77431;BME280;66498;48.564;19.272;2023-06-14T01:31:51;97322.72;;;10.27;85.77
77431;BME280;66498;48.564;19.272;2023-06-14T01:34:58;97323.72;;;10.56;84.56
77431;BME280;66498;48.564;19.272;2023-06-14T01:37:27;97327.09;;;10.33;84.79
77431;BME280;66498;48.564;19.272;2023-06-14T01:39:58;97332.59;;;10.25;84.77
77431;BME280;66498;48.564;19.272;2023-06-14T01:42:26;97332.13;;;10.16;85.22
77431;BME280;66498;48.564;19.272;2023-06-14T01:44:53;97332.25;;;9.91;86.26
77431;BME280;66498;48.564;19.272;2023-06-14T01:47:22;97339.22;;;9.98;86.19
77431;BME280;66498;48.564;19.272;2023-06-14T01:49:48;97333.13;;;10.15;85.71
77431;BME280;66498;48.564;19.272;2023-06-14T01:52:14;97333.38;;;10.14;85.58
77431;BME280;66498;48.564;19.272;2023-06-14T01:54:45;97339.22;;;10.16;85.80
77431;BME280;66498;48.564;19.272;2023-06-14T01:57:16;97344.31;;;10.11;86.07
77431;BME280;66498;48.564;19.272;2023-06-14T01:59:42;97346.50;;;10.14;85.47
77431;BME280;66498;48.564;19.272;2023-06-14T02:02:08;97348.59;;;10.05;84.91
77431;BME280;66498;48.564;19.272;2023-06-14T02:04:33;97347.59;;;10.06;84.61
77431;BME280;66498;48.564;19.272;2023-06-14T02:06:59;97347.69;;;10.60;82.43
77431;BME280;66498;48.564;19.272;2023-06-14T02:09:52;97344.81;;;10.61;82.04
77431;BME280;66498;48.564;19.272;2023-06-14T02:13:26;97341.88;;;10.28;84.06
77431;BME280;66498;48.564;19.272;2023-06-14T02:16:52;97344.44;;;9.86;84.88
77431;BME280;66498;48.564;19.272;2023-06-14T02:19:30;97342.81;;;10.03;84.09
77431;BME280;66498;48.564;19.272;2023-06-14T02:21:57;97349.44;;;10.06;85.05
77431;BME280;66498;48.564;19.272;2023-06-14T02:24:32;97355.41;;;9.94;85.52
77431;BME280;66498;48.564;19.272;2023-06-14T02:27:30;97343.09;;;9.95;85.19
77431;BME280;66498;48.564;19.272;2023-06-14T02:30:10;97359.22;;;9.80;85.34
77431;BME280;66498;48.564;19.272;2023-06-14T02:33:14;97359.81;;;9.82;85.14
77431;BME280;66498;48.564;19.272;2023-06-14T02:35:41;97358.75;;;10.02;84.27
77431;BME280;66498;48.564;19.272;2023-06-14T02:38:11;97355.94;;;9.66;85.89
77431;BME280;66498;48.564;19.272;2023-06-14T02:40:59;97359.22;;;9.43;86.66
77431;BME280;66498;48.564;19.272;2023-06-14T02:43:49;97352.31;;;9.49;86.28
77431;BME280;66498;48.564;19.272;2023-06-14T02:47:08;97354.00;;;9.25;87.86
77431;BME280;66498;48.564;19.272;2023-06-14T02:50:05;97349.63;;;9.37;87.01
77431;BME280;66498;48.564;19.272;2023-06-14T02:52:56;97348.31;;;9.46;87.46
77431;BME280;66498;48.564;19.272;2023-06-14T02:55:23;97354.72;;;9.69;85.87
77431;BME280;66498;48.564;19.272;2023-06-14T02:57:50;97353.34;;;9.66;85.20
77431;BME280;66498;48.564;19.272;2023-06-14T03:00:23;97347.28;;;9.47;86.05
77431;BME280;66498;48.564;19.272;2023-06-14T03:02:55;97349.41;;;9.20;88.03
77431;BME280;66498;48.564;19.272;2023-06-14T03:06:01;97349.09;;;8.85;89.69
77431;BME280;66498;48.564;19.272;2023-06-14T03:08:29;97352.88;;;8.89;90.15
77431;BME280;66498;48.564;19.272;2023-06-14T03:10:55;97355.75;;;9.06;89.85
77431;BME280;66498;48.564;19.272;2023-06-14T03:13:22;97358.78;;;9.28;89.06
77431;BME280;66498;48.564;19.272;2023-06-14T03:16:14;97356.81;;;9.23;88.72
77431;BME280;66498;48.564;19.272;2023-06-14T03:19:08;97354.13;;;9.30;88.33
77431;BME280;66498;48.564;19.272;2023-06-14T03:21:44;97346.50;;;9.29;88.64
77431;BME280;66498;48.564;19.272;2023-06-14T03:24:51;97356.38;;;9.63;87.70
77431;BME280;66498;48.564;19.272;2023-06-14T03:27:44;97355.59;;;9.63;87.54
77431;BME280;66498;48.564;19.272;2023-06-14T03:30:31;97353.97;;;9.80;86.93
77431;BME280;66498;48.564;19.272;2023-06-14T03:32:58;97356.53;;;9.68;86.96
77431;BME280;66498;48.564;19.272;2023-06-14T03:35:32;97362.00;;;9.85;86.56
77431;BME280;66498;48.564;19.272;2023-06-14T03:38:17;97359.50;;;9.90;86.24
77431;BME280;66498;48.564;19.272;2023-06-14T03:40:44;97354.69;;;10.06;85.88
77431;BME280;66498;48.564;19.272;2023-06-14T03:43:14;97360.38;;;9.84;86.42
77431;BME280;66498;48.564;19.272;2023-06-14T03:45:41;97363.38;;;9.69;87.71
77431;BME280;66498;48.564;19.272;2023-06-14T03:48:09;97367.47;;;9.65;88.15
77431;BME280;66498;48.564;19.272;2023-06-14T03:51:01;97362.72;;;9.56;89.06
77431;BME280;66498;48.564;19.272;2023-06-14T03:53:27;97373.34;;;9.79;88.53
77431;BME280;66498;48.564;19.272;2023-06-14T03:55:55;97361.44;;;9.95;87.97
77431;BME280;66498;48.564;19.272;2023-06-14T03:58:20;97366.69;;;10.44;85.73
77431;BME280;66498;48.564;19.272;2023-06-14T04:00:47;97375.47;;;10.49;85.39
77431;BME280;66498;48.564;19.272;2023-06-14T04:03:13;97371.25;;;10.36;86.40
77431;BME280;66498;48.564;19.272;2023-06-14T04:05:41;97368.19;;;10.21;87.50
77431;BME280;66498;48.564;19.272;2023-06-14T04:08:08;97373.50;;;10.14;88.07
77431;BME280;66498;48.564;19.272;2023-06-14T04:10:41;97383.72;;;10.23;87.89
77431;BME280;66498;48.564;19.272;2023-06-14T04:13:08;97379.47;;;10.40;87.37
77431;BME280;66498;48.564;19.272;2023-06-14T04:15:37;97383.59;;;10.48;86.83
77431;BME280;66498;48.564;19.272;2023-06-14T04:18:03;97379.47;;;10.40;87.61
77431;BME280;66498;48.564;19.272;2023-06-14T04:20:28;97377.72;;;10.34;88.26
77431;BME280;66498;48.564;19.272;2023-06-14T04:22:56;97375.22;;;10.39;87.45
77431;BME280;66498;48.564;19.272;2023-06-14T04:25:22;97379.94;;;10.49;86.78
77431;BME280;66498;48.564;19.272;2023-06-14T04:27:48;97378.84;;;10.68;86.88
77431;BME280;66498;48.564;19.272;2023-06-14T04:30:15;97383.16;;;10.51;87.84
77431;BME280;66498;48.564;19.272;2023-06-14T04:32:41;97381.31;;;10.51;88.96
77431;BME280;66498;48.564;19.272;2023-06-14T04:35:13;97386.03;;;10.73;87.93
77431;BME280;66498;48.564;19.272;2023-06-14T04:37:40;97386.66;;;10.98;85.60
77431;BME280;66498;48.564;19.272;2023-06-14T04:40:10;97382.19;;;10.99;85.88
77431;BME280;66498;48.564;19.272;2023-06-14T04:42:36;97375.19;;;10.69;86.73
77431;BME280;66498;48.564;19.272;2023-06-14T04:45:11;97380.03;;;10.96;85.79
77431;BME280;66498;48.564;19.272;2023-06-14T04:47:38;97373.50;;;11.33;84.02
77431;BME280;66498;48.564;19.272;2023-06-14T04:50:04;97377.88;;;11.16;85.13
77431;BME280;66498;48.564;19.272;2023-06-14T04:52:29;97381.97;;;11.12;85.46
77431;BME280;66498;48.564;19.272;2023-06-14T04:54:56;97384.47;;;11.07;87.20
77431;BME280;66498;48.564;19.272;2023-06-14T04:57:22;97380.84;;;11.20;86.20
77431;BME280;66498;48.564;19.272;2023-06-14T04:59:48;97384.38;;;11.37;86.00
77431;BME280;66498;48.564;19.272;2023-06-14T05:02:14;97387.91;;;11.19;87.39
77431;BME280;66498;48.564;19.272;2023-06-14T05:04:41;97398.31;;;11.14;88.29
77431;BME280;66498;48.564;19.272;2023-06-14T05:07:08;97396.16;;;11.23;88.14
77431;BME280;66498;48.564;19.272;2023-06-14T05:09:34;97395.78;;;11.31;87.93
77431;BME280;66498;48.564;19.272;2023-06-14T05:12:01;97397.50;;;11.37;87.39
77431;BME280;66498;48.564;19.272;2023-06-14T05:14:28;97399.00;;;11.56;86.49
77431;BME280;66498;48.564;19.272;2023-06-14T05:16:55;97400.91;;;11.73;86.50
77431;BME280;66498;48.564;19.272;2023-06-14T05:19:22;97401.13;;;11.71;86.81
77431;BME280;66498;48.564;19.272;2023-06-14T05:21:47;97403.75;;;11.83;86.29
77431;BME280;66498;48.564;19.272;2023-06-14T05:24:14;97393.16;;;12.47;84.14
77431;BME280;66498;48.564;19.272;2023-06-14T05:26:39;97400.38;;;13.19;80.77
77431;BME280;66498;48.564;19.272;2023-06-14T05:29:05;97410.81;;;13.47;79.15
77431;BME280;66498;48.564;19.272;2023-06-14T05:31:30;97411.59;;;14.09;75.95
77431;BME280;66498;48.564;19.272;2023-06-14T05:33:56;97409.56;;;14.38;74.75
77431;BME280;66498;48.564;19.272;2023-06-14T05:36:26;97405.13;;;14.16;75.90
77431;BME280;66498;48.564;19.272;2023-06-14T05:38:54;97403.34;;;14.00;75.89
77431;BME280;66498;48.564;19.272;2023-06-14T05:41:36;97406.56;;;13.85;76.91
77431;BME280;66498;48.564;19.272;2023-06-14T05:44:26;97405.72;;;14.24;75.11
77431;BME280;66498;48.564;19.272;2023-06-14T05:47:05;97408.41;;;14.29;75.74
77431;BME280;66498;48.564;19.272;2023-06-14T05:49:35;97409.56;;;14.38;74.63
77431;BME280;66498;48.564;19.272;2023-06-14T05:52:02;97404.81;;;14.94;72.37
77431;BME280;66498;48.564;19.272;2023-06-14T05:54:29;97406.34;;;14.85;72.91
77431;BME280;66498;48.564;19.272;2023-06-14T05:57:17;97401.28;;;15.53;70.44
77431;BME280;66498;48.564;19.272;2023-06-14T06:00:29;97406.44;;;15.32;69.88
77431;BME280;66498;48.564;19.272;2023-06-14T06:03:05;97401.66;;;15.34;67.94
77431;BME280;66498;48.564;19.272;2023-06-14T06:05:36;97411.22;;;15.03;70.28
77431;BME280;66498;48.564;19.272;2023-06-14T06:18:53;97402.69;;;16.44;64.94
77431;BME280;66498;48.564;19.272;2023-06-14T06:21:20;97409.16;;;15.95;67.08
77431;BME280;66498;48.564;19.272;2023-06-14T06:23:48;97407.19;;;16.28;65.42
77431;BME280;66498;48.564;19.272;2023-06-14T06:26:17;97407.81;;;15.93;65.20
77431;BME280;66498;48.564;19.272;2023-06-14T06:28:42;97413.59;;;16.58;65.29
77431;BME280;66498;48.564;19.272;2023-06-14T06:31:08;97416.00;;;16.69;64.30
77431;BME280;66498;48.564;19.272;2023-06-14T06:33:33;97410.47;;;16.91;64.19
77431;BME280;66498;48.564;19.272;2023-06-14T06:35:59;97418.66;;;17.56;61.23
77431;BME280;66498;48.564;19.272;2023-06-14T06:38:24;97410.19;;;17.29;62.79
77431;BME280;66498;48.564;19.272;2023-06-14T06:40:50;97416.22;;;17.65;61.94
77431;BME280;66498;48.564;19.272;2023-06-14T06:43:15;97414.47;;;17.09;63.89
77431;BME280;66498;48.564;19.272;2023-06-14T06:45:43;97410.41;;;17.53;61.49
77431;BME280;66498;48.564;19.272;2023-06-14T06:48:08;97405.94;;;17.53;60.90
77431;BME280;66498;48.564;19.272;2023-06-14T06:50:37;97404.09;;;17.43;61.00
77431;BME280;66498;48.564;19.272;2023-06-14T06:53:02;97412.84;;;17.18;61.69
77431;BME280;66498;48.564;19.272;2023-06-14T06:55:31;97412.28;;;17.42;61.96
77431;BME280;66498;48.564;19.272;2023-06-14T06:57:56;97418.00;;;18.00;59.79
77431;BME280;66498;48.564;19.272;2023-06-14T07:00:22;97410.72;;;18.31;59.81
77431;BME280;66498;48.564;19.272;2023-06-14T07:02:47;97407.94;;;18.52;59.04
77431;BME280;66498;48.564;19.272;2023-06-14T07:05:25;97405.66;;;17.55;59.33
77431;BME280;66498;48.564;19.272;2023-06-14T07:07:51;97406.34;;;17.96;60.20
77431;BME280;66498;48.564;19.272;2023-06-14T07:10:17;97401.63;;;17.62;60.34
77431;BME280;66498;48.564;19.272;2023-06-14T07:12:42;97406.34;;;17.96;60.28
77431;BME280;66498;48.564;19.272;2023-06-14T07:15:09;97411.56;;;18.16;58.10
77431;BME280;66498;48.564;19.272;2023-06-14T07:17:38;97410.81;;;19.00;56.68
77431;BME280;66498;48.564;19.272;2023-06-14T07:20:05;97413.50;;;18.95;58.83
77431;BME280;66498;48.564;19.272;2023-06-14T07:22:33;97411.00;;;18.69;57.48
77431;BME280;66498;48.564;19.272;2023-06-14T07:24:58;97408.69;;;18.57;57.99
77431;BME280;66498;48.564;19.272;2023-06-14T07:27:24;97405.91;;;18.33;57.45
77431;BME280;66498;48.564;19.272;2023-06-14T07:29:49;97401.63;;;18.37;57.27
77431;BME280;66498;48.564;19.272;2023-06-14T07:32:15;97410.13;;;18.84;58.09
77431;BME280;66498;48.564;19.272;2023-06-14T07:34:40;97404.75;;;19.52;52.85
77431;BME280;66498;48.564;19.272;2023-06-14T07:37:06;97406.22;;;19.05;55.17
77431;BME280;66498;48.564;19.272;2023-06-14T07:39:32;97404.63;;;19.09;54.13
77431;BME280;66498;48.564;19.272;2023-06-14T07:41:57;97396.53;;;19.49;52.03
77431;BME280;66498;48.564;19.272;2023-06-14T07:44:24;97394.69;;;19.73;54.87
77431;BME280;66498;48.564;19.272;2023-06-14T07:46:52;97393.53;;;20.03;53.04
77431;BME280;66498;48.564;19.272;2023-06-14T07:49:19;97394.19;;;20.14;51.53
77431;BME280;66498;48.564;19.272;2023-06-14T07:51:44;97399.16;;;20.45;53.76
77431;BME280;66498;48.564;19.272;2023-06-14T07:54:11;97402.38;;;20.23;54.48
77431;BME280;66498;48.564;19.272;2023-06-14T07:56:37;97394.44;;;20.18;53.32
77431;BME280;66498;48.564;19.272;2023-06-14T07:59:03;97401.72;;;21.07;51.18
77431;BME280;66498;48.564;19.272;2023-06-14T08:01:31;97396.09;;;20.32;53.13
77431;BME280;66498;48.564;19.272;2023-06-14T08:03:57;97398.84;;;19.55;55.00
77431;BME280;66498;48.564;19.272;2023-06-14T08:06:22;97391.53;;;20.14;55.01
77431;BME280;66498;48.564;19.272;2023-06-14T08:08:48;97392.81;;;20.60;52.90
77431;BME280;66498;48.564;19.272;2023-06-14T08:11:14;97392.69;;;20.51;51.65
77431;BME280;66498;48.564;19.272;2023-06-14T08:13:40;97390.22;;;20.54;51.94
77431;BME280;66498;48.564;19.272;2023-06-14T08:16:07;97406.16;;;19.98;54.01
77431;BME280;66498;48.564;19.272;2023-06-14T08:18:33;97402.41;;;19.75;54.09
77431;BME280;66498;48.564;19.272;2023-06-14T08:20:58;97396.97;;;20.28;53.63
77431;BME280;66498;48.564;19.272;2023-06-14T08:23:24;97400.25;;;20.95;51.97
77431;BME280;66498;48.564;19.272;2023-06-14T08:25:51;97398.66;;;20.62;52.40
77431;BME280;66498;48.564;19.272;2023-06-14T08:28:17;97401.09;;;19.72;56.32
77431;BME280;66498;48.564;19.272;2023-06-14T08:30:43;97401.56;;;19.79;54.00
77431;BME280;66498;48.564;19.272;2023-06-14T08:33:09;97395.06;;;20.09;55.38
77431;BME280;66498;48.564;19.272;2023-06-14T08:35:36;97396.31;;;20.17;53.68
77431;BME280;66498;48.564;19.272;2023-06-14T08:38:11;97397.72;;;20.52;54.19
77431;BME280;66498;48.564;19.272;2023-06-14T08:40:40;97403.19;;;20.80;52.12
77431;BME280;66498;48.564;19.272;2023-06-14T08:43:07;97399.78;;;20.74;50.84
77431;BME280;66498;48.564;19.272;2023-06-14T08:45:33;97396.75;;;21.46;49.19
77431;BME280;66498;48.564;19.272;2023-06-14T08:48:01;97391.63;;;21.50;49.17
77431;BME280;66498;48.564;19.272;2023-06-14T08:50:27;97394.31;;;21.64;49.02
77431;BME280;66498;48.564;19.272;2023-06-14T08:52:57;97385.47;;;20.70;51.53
77431;BME280;66498;48.564;19.272;2023-06-14T08:55:28;97388.97;;;20.28;52.46
77431;BME280;66498;48.564;19.272;2023-06-14T08:57:57;97386.22;;;20.33;53.40
77431;BME280;66498;48.564;19.272;2023-06-14T09:00:25;97384.72;;;20.84;50.15
77431;BME280;66498;48.564;19.272;2023-06-14T09:02:53;97387.44;;;21.30;48.55
77431;BME280;66498;48.564;19.272;2023-06-14T09:05:26;97383.63;;;21.17;47.54
77431;BME280;66498;48.564;19.272;2023-06-14T09:07:52;97386.91;;;21.61;46.81
77431;BME280;66498;48.564;19.272;2023-06-14T09:10:20;97388.56;;;22.12;46.19
77431;BME280;66498;48.564;19.272;2023-06-14T09:12:46;97392.19;;;22.43;45.10
77431;BME280;66498;48.564;19.272;2023-06-14T09:15:14;97388.28;;;21.72;45.95
77431;BME280;66498;48.564;19.272;2023-06-14T09:17:41;97384.81;;;21.44;44.01
77431;BME280;66498;48.564;19.272;2023-06-14T09:20:10;97377.91;;;21.70;46.03
77431;BME280;66498;48.564;19.272;2023-06-14T09:22:40;97375.31;;;21.79;44.75
77431;BME280;66498;48.564;19.272;2023-06-14T09:25:07;97382.47;;;20.91;43.57
77431;BME280;66498;48.564;19.272;2023-06-14T09:27:33;97377.88;;;20.77;41.73
77431;BME280;66498;48.564;19.272;2023-06-14T09:29:58;97382.41;;;21.42;42.50
77431;BME280;66498;48.564;19.272;2023-06-14T09:32:24;97380.97;;;21.78;41.38
77431;BME280;66498;48.564;19.272;2023-06-14T09:34:50;97372.38;;;22.67;39.10
77431;BME280;66498;48.564;19.272;2023-06-14T09:37:29;97377.69;;;22.08;40.99
77431;BME280;66498;48.564;19.272;2023-06-14T09:39:56;97377.78;;;22.76;35.95
77431;BME280;66498;48.564;19.272;2023-06-14T09:42:22;97367.47;;;23.36;36.79
77431;BME280;66498;48.564;19.272;2023-06-14T09:44:53;97366.81;;;24.19;33.54
77431;BME280;66498;48.564;19.272;2023-06-14T09:47:23;97367.34;;;23.73;35.51
77431;BME280;66498;48.564;19.272;2023-06-14T09:49:49;97376.13;;;23.33;35.12
77431;BME280;66498;48.564;19.272;2023-06-14T09:52:17;97368.28;;;23.37;34.86
77431;BME280;66498;48.564;19.272;2023-06-14T09:54:46;97367.44;;;22.38;33.21
77431;BME280;66498;48.564;19.272;2023-06-14T09:57:14;97372.75;;;22.74;34.79
77431;BME280;66498;48.564;19.272;2023-06-14T09:59:41;97366.88;;;23.08;36.10
77431;BME280;66498;48.564;19.272;2023-06-14T10:02:13;97371.19;;;22.37;35.92
77431;BME280;66498;48.564;19.272;2023-06-14T10:07:26;97366.91;;;21.72;38.79
77431;BME280;66498;48.564;19.272;2023-06-14T10:09:55;97367.88;;;21.76;37.03
77431;BME280;66498;48.564;19.272;2023-06-14T10:12:21;97367.69;;;22.50;38.12
77431;BME280;66498;48.564;19.272;2023-06-14T10:14:49;97353.94;;;22.65;36.45
77431;BME280;66498;48.564;19.272;2023-06-14T10:17:35;97360.72;;;22.27;39.10
77431;BME280;66498;48.564;19.272;2023-06-14T10:20:10;97359.06;;;22.17;38.31
77431;BME280;66498;48.564;19.272;2023-06-14T10:22:50;97361.66;;;21.94;39.25
77431;BME280;66498;48.564;19.272;2023-06-14T10:25:30;97364.81;;;21.83;39.74
77431;BME280;66498;48.564;19.272;2023-06-14T10:31:01;97368.88;;;22.80;39.98
77431;BME280;66498;48.564;19.272;2023-06-14T10:33:29;97370.75;;;23.02;41.28
77431;BME280;66498;48.564;19.272;2023-06-14T10:36:28;97366.75;;;23.53;40.04
77431;BME280;66498;48.564;19.272;2023-06-14T10:39:11;97362.22;;;24.28;38.94
77431;BME280;66498;48.564;19.272;2023-06-14T10:41:40;97356.53;;;23.55;41.11
77431;BME280;66498;48.564;19.272;2023-06-14T10:46:56;97351.22;;;22.57;43.23
77431;BME280;66498;48.564;19.272;2023-06-14T10:49:39;97349.09;;;22.67;43.41
77431;BME280;66498;48.564;19.272;2023-06-14T10:52:15;97350.88;;;22.95;41.49
77431;BME280;66498;48.564;19.272;2023-06-14T10:55:12;97352.28;;;22.70;42.85
77431;BME280;66498;48.564;19.272;2023-06-14T10:57:50;97346.28;;;21.31;43.72
77431;BME280;66498;48.564;19.272;2023-06-14T11:00:19;97336.81;;;20.41;45.50
77431;BME280;66498;48.564;19.272;2023-06-14T11:05:53;97349.47;;;21.33;45.16
77431;BME280;66498;48.564;19.272;2023-06-14T11:11:12;97368.09;;;21.19;45.00
77431;BME280;66498;48.564;19.272;2023-06-14T11:13:50;97375.25;;;20.91;45.99
77431;BME280;66498;48.564;19.272;2023-06-14T11:16:26;97382.63;;;20.81;45.80
77431;BME280;66498;48.564;19.272;2023-06-14T11:18:52;97379.97;;;20.81;47.68
77431;BME280;66498;48.564;19.272;2023-06-14T11:21:20;97386.63;;;20.64;47.16
77431;BME280;66498;48.564;19.272;2023-06-14T11:23:52;97384.69;;;21.49;45.66
77431;BME280;66498;48.564;19.272;2023-06-14T11:26:30;97396.09;;;21.82;44.60
77431;BME280;66498;48.564;19.272;2023-06-14T11:28:57;97391.34;;;21.79;46.15
77431;BME280;66498;48.564;19.272;2023-06-14T11:31:23;97396.81;;;22.15;44.77
77431;BME280;66498;48.564;19.272;2023-06-14T11:33:50;97397.25;;;23.04;43.84
77431;BME280;66498;48.564;19.272;2023-06-14T11:36:20;97397.63;;;22.52;42.21
77431;BME280;66498;48.564;19.272;2023-06-14T11:38:49;97395.44;;;21.30;43.84
77431;BME280;66498;48.564;19.272;2023-06-14T11:41:15;97392.34;;;20.90;44.83
77431;BME280;66498;48.564;19.272;2023-06-14T11:43:44;97398.66;;;21.60;45.08
77431;BME280;66498;48.564;19.272;2023-06-14T11:46:13;97393.44;;;21.68;45.70
77431;BME280;66498;48.564;19.272;2023-06-14T11:48:42;97393.81;;;22.17;42.79
77431;BME280;66498;48.564;19.272;2023-06-14T11:51:10;97394.66;;;22.99;39.85
77431;BME280;66498;48.564;19.272;2023-06-14T11:53:42;97389.78;;;21.92;42.37
77431;BME280;66498;48.564;19.272;2023-06-14T11:56:09;97377.50;;;22.05;42.19
77431;BME280;66498;48.564;19.272;2023-06-14T11:58:35;97384.63;;;21.82;43.20
77431;BME280;66498;48.564;19.272;2023-06-14T12:01:03;97383.91;;;21.90;41.15
77431;BME280;66498;48.564;19.272;2023-06-14T12:03:29;97378.91;;;21.28;43.19
77431;BME280;66498;48.564;19.272;2023-06-14T12:06:05;97391.41;;;21.00;43.64
77431;BME280;66498;48.564;19.272;2023-06-14T12:08:36;97390.16;;;20.60;42.21
77431;BME280;66498;48.564;19.272;2023-06-14T12:11:14;97386.66;;;20.78;46.26
77431;BME280;66498;48.564;19.272;2023-06-14T12:13:41;97393.66;;;20.93;46.65
77431;BME280;66498;48.564;19.272;2023-06-14T12:16:11;97405.13;;;20.93;44.65
77431;BME280;66498;48.564;19.272;2023-06-14T12:18:39;97416.38;;;20.90;50.07
77431;BME280;66498;48.564;19.272;2023-06-14T12:21:07;97397.31;;;20.97;48.43
77431;BME280;66498;48.564;19.272;2023-06-14T12:23:58;97403.50;;;20.60;49.19
77431;BME280;66498;48.564;19.272;2023-06-14T12:26:25;97415.72;;;20.42;47.88
77431;BME280;66498;48.564;19.272;2023-06-14T12:28:52;97408.63;;;20.56;48.58
77431;BME280;66498;48.564;19.272;2023-06-14T12:31:17;97412.84;;;20.14;51.51
77431;BME280;66498;48.564;19.272;2023-06-14T12:33:44;97409.09;;;19.96;50.13
77431;BME280;66498;48.564;19.272;2023-06-14T12:36:11;97403.31;;;20.32;48.67
77431;BME280;66498;48.564;19.272;2023-06-14T12:38:37;97400.03;;;21.43;48.08
77431;BME280;66498;48.564;19.272;2023-06-14T12:41:03;97400.94;;;21.80;46.95
77431;BME280;66498;48.564;19.272;2023-06-14T12:43:29;97400.44;;;22.06;44.01
77431;BME280;66498;48.564;19.272;2023-06-14T12:45:55;97401.03;;;22.16;45.78
77431;BME280;66498;48.564;19.272;2023-06-14T12:48:21;97409.63;;;22.41;42.29
77431;BME280;66498;48.564;19.272;2023-06-14T12:50:47;97401.56;;;23.76;39.78
77431;BME280;66498;48.564;19.272;2023-06-14T12:53:13;97399.91;;;23.66;37.94
77431;BME280;66498;48.564;19.272;2023-06-14T12:55:38;97407.34;;;23.07;41.98
77431;BME280;66498;48.564;19.272;2023-06-14T12:58:04;97402.81;;;22.07;41.33
77431;BME280;66498;48.564;19.272;2023-06-14T13:00:30;97405.78;;;22.06;45.05
77431;BME280;66498;48.564;19.272;2023-06-14T13:02:57;97411.94;;;21.79;45.97
77431;BME280;66498;48.564;19.272;2023-06-14T13:05:23;97410.50;;;21.40;46.59
77431;BME280;66498;48.564;19.272;2023-06-14T13:07:49;97413.22;;;21.95;45.13
77431;BME280;66498;48.564;19.272;2023-06-14T13:10:16;97414.41;;;21.75;45.48
77431;BME280;66498;48.564;19.272;2023-06-14T13:12:42;97414.19;;;21.44;43.00
77431;BME280;66498;48.564;19.272;2023-06-14T13:15:11;97421.03;;;20.98;47.29
77431;BME280;66498;48.564;19.272;2023-06-14T13:17:36;97424.59;;;20.13;48.82
77431;BME280;66498;48.564;19.272;2023-06-14T13:20:07;97425.03;;;20.20;50.03
77431;BME280;66498;48.564;19.272;2023-06-14T13:22:37;97426.00;;;20.29;48.99
77431;BME280;66498;48.564;19.272;2023-06-14T13:25:03;97413.66;;;21.09;45.15
77431;BME280;66498;48.564;19.272;2023-06-14T13:27:32;97408.06;;;21.43;44.20
77431;BME280;66498;48.564;19.272;2023-06-14T13:30:03;97419.81;;;21.10;44.75
77431;BME280;66498;48.564;19.272;2023-06-14T13:32:32;97419.75;;;20.96;43.07
77431;BME280;66498;48.564;19.272;2023-06-14T13:38:24;97413.38;;;20.16;45.85
77431;BME280;66498;48.564;19.272;2023-06-14T13:49:52;97424.91;;;20.30;47.64
77431;BME280;66498;48.564;19.272;2023-06-14T13:52:17;97421.59;;;20.20;54.11
77431;BME280;66498;48.564;19.272;2023-06-14T13:57:19;97422.53;;;20.53;50.73